Time;durP1;ratioP1;P1;durP2;ratioP2;P2;SDS_P1;SDS_P2;PMS_P1;PMS_P2;Temp;Humidity;BMP_temperature;BMP_pressure;BME280_temperature;BME280_humidity;BME280_pressure;Samples;Min_cycle;Max_cycle;Signal;HPM_P1;HPM_P2
2021/01/14 00:00:13;;;;;;;0.50;0.50;;;2.80;99.90;;;;;;5011853;28;20221;-91
2021/01/14 00:02:39;;;;;;;0.30;0.30;;;2.70;99.90;;;;;;5015308;28;20269;-91
2021/01/14 00:05:07;;;;;;;0.30;0.30;;;2.70;99.90;;;;;;5000465;28;20185;-92
2021/01/14 00:07:32;;;;;;;0.67;0.50;;;2.70;99.90;;;;;;5021209;28;20243;-91
2021/01/14 00:13:34;;;;;;;2.07;0.33;;;2.70;99.90;;;;;;5016027;28;20643;-91
2021/01/14 00:16:00;;;;;;;0.53;0.50;;;3.00;99.90;;;;;;5013992;28;20235;-90
2021/01/14 00:18:26;;;;;;;1.07;0.77;;;3.00;99.90;;;;;;4984367;28;20592;-92
2021/01/14 00:20:54;;;;;;;1.90;1.60;;;3.00;99.90;;;;;;5000194;28;20707;-91
2021/01/14 00:23:39;;;;;;;0.70;0.70;;;2.90;99.90;;;;;;4991312;28;20187;-92
2021/01/14 00:26:05;;;;;;;0.30;0.30;;;2.90;99.90;;;;;;5001437;28;20218;-91
2021/01/14 00:28:30;;;;;;;0.33;0.33;;;2.90;99.90;;;;;;5010352;28;20217;-91
2021/01/14 00:30:56;;;;;;;0.40;0.40;;;2.90;99.90;;;;;;4982139;28;20671;-92
2021/01/14 00:33:22;;;;;;;0.60;0.43;;;2.90;99.90;;;;;;4998613;28;20187;-92
2021/01/14 00:35:47;;;;;;;0.30;0.30;;;3.00;99.90;;;;;;4980542;28;20215;-92
2021/01/14 00:38:13;;;;;;;3.60;0.70;;;3.00;99.90;;;;;;4978088;28;20518;-92
2021/01/14 00:40:52;;;;;;;0.30;0.30;;;3.00;99.90;;;;;;4998519;28;20222;-92
2021/01/14 00:43:18;;;;;;;0.40;0.40;;;3.00;99.90;;;;;;4983944;28;20679;-91
2021/01/14 00:45:44;;;;;;;0.30;0.30;;;2.90;99.90;;;;;;4984113;28;20183;-92
2021/01/14 00:48:09;;;;;;;15.13;1.07;;;2.80;99.90;;;;;;4979970;28;20219;-92
2021/01/14 00:50:35;;;;;;;0.30;0.30;;;2.80;99.90;;;;;;4996956;28;20267;-91
2021/01/14 00:53:19;;;;;;;0.30;0.30;;;2.70;99.90;;;;;;4998713;28;20322;-91
2021/01/14 00:55:45;;;;;;;0.50;0.50;;;2.60;99.90;;;;;;4983876;28;20227;-91
2021/01/14 00:58:10;;;;;;;2.47;0.70;;;2.60;99.90;;;;;;4998356;28;20224;-92
2021/01/14 01:00:36;;;;;;;3.20;0.83;;;2.50;99.90;;;;;;4998581;28;20222;-91
2021/01/14 01:03:06;;;;;;;0.60;0.60;;;2.50;99.90;;;;;;4982021;28;20234;-92
2021/01/14 01:09:13;;;;;;;0.30;0.30;;;2.60;99.90;;;;;;5013569;28;20350;-92
2021/01/14 01:11:39;;;;;;;0.53;0.50;;;2.70;99.90;;;;;;4975073;28;20282;-92
2021/01/14 01:14:05;;;;;;;3.50;1.07;;;2.70;99.90;;;;;;4957936;28;20935;-92
2021/01/14 01:16:32;;;;;;;0.97;0.97;;;2.60;99.90;;;;;;4973217;28;20223;-93
2021/01/14 01:18:57;;;;;;;0.50;0.50;;;2.50;99.90;;;;;;4985417;28;20329;-94
2021/01/14 01:21:23;;;;;;;1.33;1.00;;;2.50;99.90;;;;;;4988421;28;20327;-93
2021/01/14 01:23:49;;;;;;;0.30;0.30;;;2.50;99.90;;;;;;4972027;28;20194;-91
2021/01/14 01:26:17;;;;;;;0.40;0.40;;;2.50;99.90;;;;;;4989495;28;20322;-93
2021/01/14 01:28:43;;;;;;;1.43;1.43;;;2.50;99.90;;;;;;5007011;28;20223;-93
2021/01/14 01:31:10;;;;;;;0.40;0.40;;;2.50;99.90;;;;;;4988847;28;20212;-92
2021/01/14 01:33:37;;;;;;;0.30;0.30;;;2.40;99.90;;;;;;4973916;28;21024;-93
2021/01/14 01:36:03;;;;;;;0.57;0.57;;;2.40;99.90;;;;;;4976915;28;20282;-92
2021/01/14 01:38:29;;;;;;;0.60;0.60;;;2.30;99.90;;;;;;4996179;28;20555;-91
2021/01/14 01:41:00;;;;;;;0.73;0.73;;;2.30;99.90;;;;;;4993008;28;20285;-92
2021/01/14 01:43:26;;;;;;;0.30;0.30;;;2.20;99.90;;;;;;5010016;28;20721;-92
2021/01/14 01:45:52;;;;;;;0.40;0.40;;;2.20;99.90;;;;;;5009972;28;20230;-93
2021/01/14 01:48:19;;;;;;;0.30;0.30;;;2.20;99.90;;;;;;4975724;28;20306;-91
2021/01/14 01:50:47;;;;;;;0.60;0.60;;;2.10;99.90;;;;;;4974615;28;20195;-92
2021/01/14 01:53:13;;;;;;;0.40;0.40;;;2.10;99.90;;;;;;4981274;28;20191;-91
2021/01/14 01:55:42;;;;;;;0.30;0.30;;;2.10;99.90;;;;;;5006834;28;20229;-92
2021/01/14 01:58:10;;;;;;;10.40;0.97;;;2.00;99.90;;;;;;4990892;28;20219;-92
2021/01/14 02:00:35;;;;;;;0.30;0.30;;;2.00;99.90;;;;;;5009199;28;20223;-92
2021/01/14 02:03:01;;;;;;;0.30;0.30;;;2.00;99.90;;;;;;4976273;28;20572;-92
2021/01/14 02:05:27;;;;;;;1.80;0.60;;;1.80;99.90;;;;;;4994330;28;20242;-92
2021/01/14 02:08:14;;;;;;;0.67;0.50;;;1.80;99.90;;;;;;4976533;28;20311;-92
2021/01/14 02:10:54;;;;;;;1.23;1.13;;;1.80;99.90;;;;;;4994664;28;20230;-92
2021/01/14 02:13:31;;;;;;;0.40;0.40;;;1.80;99.90;;;;;;5009990;28;20252;-93
2021/01/14 02:16:02;;;;;;;0.70;0.70;;;1.80;99.90;;;;;;5008513;28;20269;-93
2021/01/14 02:18:28;;;;;;;0.30;0.30;;;1.80;99.90;;;;;;4991856;28;20227;-93
2021/01/14 02:20:59;;;;;;;1.60;1.50;;;1.90;99.90;;;;;;4992657;28;20282;-93
2021/01/14 02:23:34;;;;;;;0.30;0.30;;;2.00;99.90;;;;;;4993446;28;20180;-93
2021/01/14 02:26:09;;;;;;;1.47;1.37;;;2.00;99.90;;;;;;4995450;28;20219;-91
2021/01/14 02:28:35;;;;;;;1.53;0.87;;;2.00;99.90;;;;;;5002745;28;20214;-91
2021/01/14 02:31:02;;;;;;;1.93;1.37;;;2.00;99.90;;;;;;4980208;28;20231;-92
2021/01/14 02:33:27;;;;;;;0.63;0.63;;;2.00;99.90;;;;;;4992868;28;20220;-92
2021/01/14 02:35:53;;;;;;;0.87;0.43;;;2.00;99.90;;;;;;4982447;28;20215;-91
2021/01/14 02:38:19;;;;;;;0.77;0.43;;;2.10;99.90;;;;;;4981860;28;20194;-92
2021/01/14 02:40:45;;;;;;;0.40;0.40;;;2.20;99.90;;;;;;4994888;28;20719;-92
2021/01/14 02:43:10;;;;;;;0.40;0.40;;;2.30;99.90;;;;;;4981711;28;20644;-91
2021/01/14 02:45:36;;;;;;;2.50;1.60;;;2.30;99.90;;;;;;4981533;28;20218;-92
2021/01/14 02:48:04;;;;;;;0.70;0.70;;;2.30;99.90;;;;;;4998446;28;20179;-92
2021/01/14 02:50:37;;;;;;;0.30;0.30;;;2.50;99.90;;;;;;4981938;28;20187;-91
2021/01/14 02:53:03;;;;;;;0.30;0.30;;;2.60;99.90;;;;;;4996438;28;20232;-92
2021/01/14 02:55:29;;;;;;;0.40;0.40;;;2.70;99.90;;;;;;4979814;28;20286;-91
2021/01/14 02:57:58;;;;;;;0.20;0.20;;;2.80;99.90;;;;;;4980023;28;20223;-91
2021/01/14 03:00:24;;;;;;;0.43;0.43;;;2.80;99.90;;;;;;4997581;28;20223;-92
2021/01/14 03:02:50;;;;;;;0.30;0.30;;;2.80;99.90;;;;;;4996016;28;20189;-91
2021/01/14 03:05:16;;;;;;;3.30;0.80;;;2.80;99.90;;;;;;4997989;28;20189;-92
2021/01/14 03:07:43;;;;;;;0.40;0.40;;;2.80;99.90;;;;;;5007210;28;20226;-92
2021/01/14 03:14:18;;;;;;;0.30;0.30;;;2.80;99.90;;;;;;4999360;28;20190;-91
2021/01/14 03:16:44;;;;;;;0.27;0.27;;;2.80;99.90;;;;;;4992565;28;20242;-91
2021/01/14 03:19:10;;;;;;;0.97;0.60;;;2.80;99.90;;;;;;4971774;28;20591;-90
2021/01/14 03:21:35;;;;;;;0.20;0.20;;;2.80;99.90;;;;;;4992524;28;20219;-91
2021/01/14 03:24:01;;;;;;;0.40;0.40;;;2.80;99.90;;;;;;4993446;28;20226;-92
2021/01/14 03:26:27;;;;;;;0.27;0.27;;;2.80;99.90;;;;;;4973175;28;20723;-91
2021/01/14 03:28:53;;;;;;;0.47;0.47;;;2.80;99.90;;;;;;4976476;28;20245;-92
2021/01/14 03:31:19;;;;;;;0.43;0.43;;;2.80;99.90;;;;;;4978900;28;20230;-92
2021/01/14 03:33:46;;;;;;;1.23;0.70;;;2.80;99.90;;;;;;5013218;28;20273;-92
2021/01/14 03:36:16;;;;;;;12.10;0.67;;;2.90;99.90;;;;;;4994740;28;20231;-92
2021/01/14 03:38:42;;;;;;;0.30;0.30;;;2.80;99.90;;;;;;4979267;28;20215;-92
2021/01/14 03:41:17;;;;;;;0.20;0.20;;;2.80;99.90;;;;;;4996964;28;20190;-91
2021/01/14 03:43:43;;;;;;;0.40;0.40;;;2.80;99.90;;;;;;4998781;28;20264;-92
2021/01/14 03:46:12;;;;;;;0.30;0.30;;;2.80;99.90;;;;;;4995337;28;20231;-93
2021/01/14 03:48:43;;;;;;;0.60;0.60;;;2.70;99.90;;;;;;4997067;28;20278;-92
2021/01/14 03:51:22;;;;;;;0.77;0.77;;;2.60;99.90;;;;;;5012714;28;20683;-93
2021/01/14 03:53:50;;;;;;;0.60;0.60;;;2.60;99.90;;;;;;5011886;28;20195;-92
2021/01/14 03:56:16;;;;;;;0.70;0.70;;;2.50;99.90;;;;;;5014665;28;20211;-92
2021/01/14 03:58:42;;;;;;;1.27;0.77;;;2.40;99.90;;;;;;4989772;28;20222;-91
2021/01/14 04:01:08;;;;;;;4.63;0.70;;;2.30;99.90;;;;;;4990579;28;20223;-93
2021/01/14 04:03:44;;;;;;;0.40;0.40;;;2.30;99.90;;;;;;5004999;28;20565;-91
2021/01/14 04:06:10;;;;;;;0.97;0.97;;;2.30;99.90;;;;;;4991642;28;20230;-93
2021/01/14 04:08:36;;;;;;;0.20;0.20;;;2.20;99.90;;;;;;5007857;28;20235;-88
2021/01/14 04:11:03;;;;;;;0.30;0.30;;;2.10;99.90;;;;;;4992608;28;20199;-92
2021/01/14 04:13:30;;;;;;;0.30;0.30;;;2.00;99.90;;;;;;4990525;28;20203;-94
2021/01/14 04:15:56;;;;;;;4.40;0.67;;;1.90;99.90;;;;;;4975333;28;20235;-94
2021/01/14 04:18:21;;;;;;;0.50;0.50;;;1.90;99.90;;;;;;4989765;28;21059;-92
2021/01/14 04:20:47;;;;;;;0.40;0.40;;;1.90;99.90;;;;;;4973634;28;20188;-92
2021/01/14 04:23:13;;;;;;;0.50;0.50;;;1.90;99.90;;;;;;5008975;28;20210;-92
2021/01/14 04:25:39;;;;;;;1.30;1.30;;;1.90;99.90;;;;;;4972703;28;20223;-92
2021/01/14 04:28:05;;;;;;;0.30;0.30;;;1.90;99.90;;;;;;4989290;28;20699;-93
2021/01/14 04:30:34;;;;;;;0.30;0.30;;;1.80;99.90;;;;;;4990110;28;20219;-92
2021/01/14 04:33:13;;;;;;;0.50;0.50;;;1.80;99.90;;;;;;4988636;28;20277;-92
2021/01/14 04:35:56;;;;;;;0.70;0.70;;;1.80;99.90;;;;;;5006409;28;20686;-92
2021/01/14 04:38:23;;;;;;;1.00;1.00;;;1.80;99.90;;;;;;4990362;28;20306;-92
2021/01/14 04:40:56;;;;;;;1.80;0.97;;;1.80;99.90;;;;;;4989181;28;20646;-92
2021/01/14 04:43:23;;;;;;;0.70;0.70;;;1.70;99.90;;;;;;5005380;28;20274;-93
2021/01/14 04:45:53;;;;;;;2.00;2.00;;;1.70;99.90;;;;;;4974525;28;20241;-90
2021/01/14 04:48:21;;;;;;;0.73;0.73;;;1.70;99.90;;;;;;5009321;28;20226;-90
2021/01/14 04:50:49;;;;;;;0.60;0.60;;;1.60;99.90;;;;;;4994040;28;20224;-91
2021/01/14 04:53:18;;;;;;;0.70;0.70;;;1.60;99.90;;;;;;5006914;28;20331;-92
2021/01/14 04:55:46;;;;;;;0.33;0.33;;;1.60;99.90;;;;;;4987208;28;20313;-91
2021/01/14 04:58:19;;;;;;;0.67;0.67;;;1.70;99.90;;;;;;4996394;28;20366;-92
2021/01/14 05:00:50;;;;;;;0.30;0.30;;;1.70;99.90;;;;;;4993227;28;20214;-92
2021/01/14 05:03:27;;;;;;;0.63;0.60;;;1.80;99.90;;;;;;5011406;28;20244;-93
2021/01/14 05:05:55;;;;;;;0.40;0.40;;;1.90;99.90;;;;;;4993166;28;20191;-92
2021/01/14 05:08:29;;;;;;;0.40;0.40;;;1.90;99.90;;;;;;5010982;28;20642;-92
2021/01/14 05:10:56;;;;;;;0.50;0.50;;;1.80;99.90;;;;;;5007780;28;20353;-92
2021/01/14 05:13:22;;;;;;;0.30;0.30;;;1.80;99.90;;;;;;4993470;28;20223;-92
2021/01/14 05:15:49;;;;;;;0.67;0.67;;;1.80;99.90;;;;;;5008995;28;20242;-92
2021/01/14 05:18:14;;;;;;;0.43;0.43;;;1.70;99.90;;;;;;4992984;28;20223;-91
2021/01/14 05:20:41;;;;;;;0.70;0.30;;;1.70;99.90;;;;;;4992076;28;20225;-92
2021/01/14 05:23:07;;;;;;;0.30;0.30;;;1.70;99.90;;;;;;4993191;28;20198;-93
2021/01/14 05:25:33;;;;;;;0.70;0.70;;;1.70;99.90;;;;;;4974441;28;20219;-92
2021/01/14 05:28:20;;;;;;;0.30;0.30;;;1.60;99.90;;;;;;4989032;28;20218;-92
2021/01/14 05:30:46;;;;;;;0.40;0.40;;;1.60;99.90;;;;;;4972506;28;20223;-91
2021/01/14 05:33:15;;;;;;;0.57;0.57;;;1.60;99.90;;;;;;4988719;28;20218;-92
2021/01/14 05:35:48;;;;;;;0.40;0.40;;;1.60;99.90;;;;;;5009246;28;20227;-92
2021/01/14 05:38:29;;;;;;;0.63;0.63;;;1.60;99.90;;;;;;4994328;28;20218;-91
2021/01/14 05:41:18;;;;;;;0.30;0.30;;;1.70;99.90;;;;;;5011525;28;20357;-92
2021/01/14 05:43:55;;;;;;;1.03;0.93;;;1.70;99.90;;;;;;5007526;28;20262;-91
2021/01/14 05:46:30;;;;;;;2.07;0.90;;;1.80;99.90;;;;;;5011490;28;20309;-93
2021/01/14 05:49:01;;;;;;;0.97;0.90;;;1.80;99.90;;;;;;4985030;28;20233;-93
2021/01/14 05:51:31;;;;;;;1.33;0.67;;;1.80;99.90;;;;;;5007162;28;20211;-93
2021/01/14 05:54:03;;;;;;;1.77;0.83;;;1.80;99.90;;;;;;4989602;28;20223;-93
2021/01/14 05:56:35;;;;;;;0.60;0.50;;;1.70;99.90;;;;;;4993555;28;20294;-94
2021/01/14 05:59:12;;;;;;;0.80;0.80;;;1.60;99.90;;;;;;5003669;28;20838;-93
2021/01/14 06:02:00;;;;;;;0.40;0.40;;;1.60;99.90;;;;;;4971917;28;21220;-92
2021/01/14 06:04:35;;;;;;;0.40;0.40;;;1.70;99.90;;;;;;4985761;28;20314;-92
2021/01/14 06:07:06;;;;;;;0.50;0.50;;;1.60;99.90;;;;;;4969116;28;20235;-93
2021/01/14 06:09:51;;;;;;;0.70;0.57;;;1.60;99.90;;;;;;4972262;28;20294;-94
2021/01/14 06:12:16;;;;;;;0.60;0.60;;;1.60;99.90;;;;;;5000288;28;20306;-93
2021/01/14 06:14:43;;;;;;;0.43;0.43;;;1.60;99.90;;;;;;4978639;28;20183;-93
2021/01/14 06:17:13;;;;;;;0.77;0.77;;;1.50;99.90;;;;;;4993900;28;20226;-90
2021/01/14 06:19:39;;;;;;;0.57;0.37;;;1.50;99.90;;;;;;4993863;28;20694;-88
2021/01/14 06:22:06;;;;;;;0.73;0.70;;;1.40;99.90;;;;;;4975970;28;20215;-89
2021/01/14 06:24:36;;;;;;;1.37;1.37;;;1.40;99.90;;;;;;4995127;28;20237;-88
2021/01/14 06:27:05;;;;;;;2.83;1.30;;;1.40;99.90;;;;;;4997532;28;20597;-88
2021/01/14 06:29:38;;;;;;;0.77;0.77;;;1.20;99.90;;;;;;5014293;28;20183;-88
2021/01/14 06:32:06;;;;;;;0.50;0.50;;;1.10;99.90;;;;;;5013230;28;20215;-89
2021/01/14 06:34:33;;;;;;;3.23;1.07;;;1.00;99.90;;;;;;5003665;28;20211;-89
2021/01/14 06:44:07;;;;;;;0.47;0.47;;;1.00;99.90;;;;;;4999422;28;20222;-88
2021/01/14 06:46:35;;;;;;;0.47;0.47;;;0.90;99.90;;;;;;5013508;28;20258;-89
2021/01/14 06:49:03;;;;;;;2.00;1.13;;;0.90;99.90;;;;;;4979389;28;20224;-89
2021/01/14 06:51:56;;;;;;;2.13;0.93;;;0.90;99.90;;;;;;5011390;28;20238;-88
2021/01/14 06:54:26;;;;;;;0.70;0.70;;;0.90;99.90;;;;;;4996007;28;20227;-89
2021/01/14 07:00:21;;;;;;;2.87;1.00;;;1.00;99.90;;;;;;5022872;28;20230;-90
2021/01/14 07:02:53;;;;;;;0.40;0.40;;;0.90;99.90;;;;;;4982543;28;20199;-88
2021/01/14 07:05:35;;;;;;;0.50;0.50;;;0.90;99.90;;;;;;5010959;28;20179;-88
2021/01/14 07:08:21;;;;;;;0.60;0.60;;;0.90;99.90;;;;;;4992960;28;20285;-86
2021/01/14 07:11:11;;;;;;;1.30;0.83;;;0.90;99.90;;;;;;4962119;28;20348;-89
2021/01/14 07:13:49;;;;;;;1.13;1.03;;;1.00;99.90;;;;;;4994375;28;20837;-89
2021/01/14 07:16:18;;;;;;;0.60;0.60;;;1.00;99.90;;;;;;4981287;28;20227;-89
2021/01/14 07:18:45;;;;;;;0.77;0.77;;;1.20;99.90;;;;;;4982392;28;20228;-90
2021/01/14 07:21:35;;;;;;;0.47;0.47;;;1.20;99.90;;;;;;4990448;28;20191;-90
2021/01/14 07:24:25;;;;;;;0.40;0.40;;;1.30;99.90;;;;;;4994410;28;20255;-90
2021/01/14 07:26:55;;;;;;;0.60;0.60;;;1.40;99.90;;;;;;4994719;28;20188;-90
2021/01/14 07:29:43;;;;;;;0.47;0.47;;;1.40;99.90;;;;;;5002434;28;20195;-89
2021/01/14 07:32:09;;;;;;;15.90;1.40;;;1.40;99.90;;;;;;4988435;28;20223;-89
2021/01/14 07:34:45;;;;;;;1.20;0.53;;;1.50;99.90;;;;;;4988306;28;20752;-91
2021/01/14 07:37:13;;;;;;;1.10;1.00;;;1.60;99.90;;;;;;5001080;28;20231;-91
2021/01/14 07:39:54;;;;;;;1.13;0.83;;;1.70;99.90;;;;;;4981352;28;20242;-89
2021/01/14 07:42:30;;;;;;;1.70;0.80;;;1.70;99.90;;;;;;4991046;28;20199;-89
2021/01/14 07:45:05;;;;;;;1.27;1.10;;;1.80;99.90;;;;;;4991552;28;20180;-89
2021/01/14 07:47:36;;;;;;;1.10;0.77;;;1.80;99.90;;;;;;4984788;28;20201;-89
2021/01/14 07:50:28;;;;;;;1.47;1.37;;;1.80;99.90;;;;;;4978161;28;20310;-90
2021/01/14 07:52:55;;;;;;;1.37;0.77;;;1.90;99.90;;;;;;4986008;28;20203;-90
2021/01/14 07:55:28;;;;;;;0.53;0.53;;;1.90;99.90;;;;;;4974770;28;20219;-94
2021/01/14 07:58:21;;;;;;;1.40;0.93;;;2.00;99.90;;;;;;4989744;28;20208;-91
2021/01/14 08:01:09;;;;;;;1.13;0.70;;;2.20;99.90;;;;;;4978419;28;20245;-90
2021/01/14 08:03:42;;;;;;;1.27;1.17;;;2.50;99.90;;;;;;4972510;28;20379;-92
2021/01/14 08:06:25;;;;;;;1.37;1.37;;;2.70;99.90;;;;;;4977225;28;20294;-92
2021/01/14 08:09:10;;;;;;;1.17;1.13;;;3.10;99.90;;;;;;4996035;28;20227;-92
2021/01/14 08:11:46;;;;;;;0.93;0.93;;;3.60;99.90;;;;;;4982476;28;20196;-86
2021/01/14 08:14:16;;;;;;;1.77;1.67;;;4.20;99.90;;;;;;4987918;28;20185;-91
2021/01/14 08:16:52;;;;;;;1.57;1.47;;;4.70;99.90;;;;;;4968121;28;20231;-90
2021/01/14 08:19:36;;;;;;;1.40;0.90;;;4.40;99.90;;;;;;4971020;28;20227;-92
2021/01/14 08:22:13;;;;;;;1.50;1.40;;;3.80;99.90;;;;;;4986946;28;20207;-92
2021/01/14 08:24:59;;;;;;;2.50;1.00;;;3.10;99.90;;;;;;4975464;28;20250;-91
2021/01/14 08:27:33;;;;;;;1.80;1.10;;;2.50;99.90;;;;;;4992987;28;20219;-90
2021/01/14 08:30:06;;;;;;;0.63;0.63;;;2.20;99.90;;;;;;4977341;28;20211;-90
2021/01/14 08:33:18;;;;;;;9.73;1.23;;;2.10;99.90;;;;;;5012858;28;20207;-89
2021/01/14 08:35:46;;;;;;;1.30;1.30;;;2.10;99.90;;;;;;4929955;28;20318;-91
2021/01/14 08:38:15;;;;;;;1.03;0.80;;;2.10;99.90;;;;;;4984035;28;20254;-89
2021/01/14 08:40:42;;;;;;;0.67;0.67;;;1.90;99.90;;;;;;5013379;28;20226;-92
2021/01/14 08:43:21;;;;;;;0.73;0.67;;;1.90;99.90;;;;;;4994094;28;20303;-90
2021/01/14 08:45:54;;;;;;;0.90;0.90;;;1.90;99.90;;;;;;5000008;28;20187;-89
2021/01/14 08:48:23;;;;;;;0.80;0.80;;;1.90;99.90;;;;;;5000075;28;20593;-90
2021/01/14 08:50:50;;;;;;;2.30;1.73;;;1.80;99.90;;;;;;4993222;28;20198;-90
2021/01/14 08:53:18;;;;;;;4.50;0.90;;;1.80;99.90;;;;;;4999020;28;20183;-90
2021/01/14 08:56:00;;;;;;;0.97;0.97;;;1.90;99.90;;;;;;4995646;28;20218;-91
2021/01/14 08:58:38;;;;;;;1.50;1.20;;;1.90;99.90;;;;;;5008126;28;20211;-92
2021/01/14 09:01:08;;;;;;;0.93;0.93;;;2.00;99.90;;;;;;4973383;28;20235;-92
2021/01/14 09:03:35;;;;;;;0.73;0.73;;;2.00;99.90;;;;;;5005156;28;20222;-92
2021/01/14 09:06:01;;;;;;;5.43;0.67;;;2.10;99.90;;;;;;4983800;28;20244;-91
2021/01/14 09:08:27;;;;;;;0.90;0.90;;;2.10;99.90;;;;;;4990776;28;20191;-93
2021/01/14 09:10:54;;;;;;;0.93;0.93;;;2.20;99.90;;;;;;4988144;28;20696;-90
2021/01/14 09:13:23;;;;;;;0.87;0.87;;;2.20;99.90;;;;;;5011496;28;20274;-90
2021/01/14 09:15:52;;;;;;;1.60;1.00;;;2.20;99.90;;;;;;4997555;28;20227;-90
2021/01/14 09:21:35;;;;;;;0.63;0.50;;;2.30;99.90;;;;;;4988280;28;20208;-89
2021/01/14 09:24:07;;;;;;;1.33;0.87;;;2.40;99.90;;;;;;4989896;28;20247;-90
2021/01/14 09:26:33;;;;;;;0.83;0.83;;;2.30;99.90;;;;;;4988594;28;20195;-91
2021/01/14 09:28:59;;;;;;;3.53;1.13;;;2.30;99.90;;;;;;4983442;28;20224;-89
2021/01/14 09:31:29;;;;;;;1.17;1.17;;;2.40;99.90;;;;;;4969229;28;20779;-90
2021/01/14 09:33:58;;;;;;;1.30;1.30;;;2.40;99.90;;;;;;4982040;28;20228;-94
2021/01/14 09:36:24;;;;;;;1.07;0.77;;;2.40;99.90;;;;;;4985825;28;20355;-90
2021/01/14 09:38:54;;;;;;;1.60;1.50;;;2.40;99.90;;;;;;4970180;28;20275;-90
2021/01/14 09:41:34;;;;;;;1.50;1.40;;;2.50;99.90;;;;;;4972398;28;20230;-93
2021/01/14 09:44:01;;;;;;;1.73;1.47;;;2.50;99.90;;;;;;4985278;28;20700;-90
2021/01/14 09:46:34;;;;;;;0.87;0.87;;;2.50;99.90;;;;;;4970312;28;20224;-90
2021/01/14 09:49:14;;;;;;;2.43;2.23;;;2.50;99.90;;;;;;4988516;28;21276;-90
2021/01/14 09:51:47;;;;;;;1.00;1.00;;;2.50;99.90;;;;;;4977332;28;20235;-92
2021/01/14 09:54:14;;;;;;;1.27;1.17;;;2.60;99.90;;;;;;4969700;28;20572;-91
2021/01/14 09:56:44;;;;;;;3.03;1.77;;;2.70;99.90;;;;;;4970620;28;20208;-93
2021/01/14 09:59:17;;;;;;;1.77;1.07;;;2.70;99.90;;;;;;4988880;28;20265;-90
2021/01/14 10:01:48;;;;;;;2.87;1.00;;;2.70;99.90;;;;;;5003456;28;20230;-89
2021/01/14 10:04:18;;;;;;;0.97;0.97;;;2.80;99.90;;;;;;5005544;28;20215;-90
2021/01/14 10:06:55;;;;;;;0.80;0.80;;;2.80;99.90;;;;;;4993884;28;20334;-91
2021/01/14 10:09:21;;;;;;;1.07;1.07;;;3.00;99.90;;;;;;4991576;28;20226;-89
2021/01/14 10:11:47;;;;;;;1.27;0.80;;;3.20;99.90;;;;;;4996367;28;20207;-92
2021/01/14 10:14:20;;;;;;;2.20;1.13;;;3.30;99.90;;;;;;4974491;28;20195;-90
2021/01/14 10:16:47;;;;;;;1.57;1.47;;;3.30;99.90;;;;;;4988206;28;20309;-94
2021/01/14 10:19:15;;;;;;;1.10;1.10;;;3.40;99.90;;;;;;4986919;28;20223;-91
2021/01/14 10:21:42;;;;;;;1.07;1.07;;;3.40;99.90;;;;;;4989275;28;21215;-90
2021/01/14 10:24:26;;;;;;;2.13;1.53;;;3.50;99.90;;;;;;5001333;28;20274;-90
2021/01/14 10:26:53;;;;;;;0.67;0.67;;;3.50;99.90;;;;;;5002160;28;20195;-92
2021/01/14 10:29:41;;;;;;;1.53;1.43;;;3.60;99.90;;;;;;4968770;28;20195;-92
2021/01/14 10:32:15;;;;;;;1.17;1.17;;;3.80;99.90;;;;;;4987489;28;20223;-91
2021/01/14 10:34:46;;;;;;;1.60;1.10;;;3.90;99.90;;;;;;5001960;28;20214;-90
2021/01/14 10:37:18;;;;;;;2.20;1.73;;;4.10;99.90;;;;;;5004775;28;20231;-90
2021/01/14 10:39:43;;;;;;;1.77;1.67;;;4.10;99.90;;;;;;4996525;28;20227;-88
2021/01/14 10:42:31;;;;;;;0.73;0.73;;;4.20;99.90;;;;;;5004948;28;20516;-89
2021/01/14 10:44:59;;;;;;;1.87;1.30;;;4.00;99.90;;;;;;4978509;28;20227;-89
2021/01/14 10:47:26;;;;;;;1.43;0.90;;;4.00;99.90;;;;;;4987999;28;20219;-92
2021/01/14 10:49:51;;;;;;;0.80;0.80;;;4.10;99.90;;;;;;5002330;28;20230;-92
2021/01/14 10:52:17;;;;;;;1.70;1.07;;;4.20;99.90;;;;;;4970044;28;20226;-93
2021/01/14 10:54:56;;;;;;;1.23;1.20;;;4.20;99.90;;;;;;4987778;28;20211;-91
2021/01/14 10:57:22;;;;;;;2.00;1.80;;;4.20;99.90;;;;;;5007833;28;20305;-90
2021/01/14 10:59:47;;;;;;;1.17;1.07;;;4.00;99.90;;;;;;4968989;28;20192;-93
2021/01/14 11:02:13;;;;;;;1.77;1.53;;;3.90;99.90;;;;;;4985152;28;20199;-90
2021/01/14 11:04:53;;;;;;;1.57;1.47;;;3.80;99.90;;;;;;5001845;28;20224;-91
2021/01/14 11:07:19;;;;;;;0.80;0.80;;;3.90;99.90;;;;;;5001284;28;20223;-91
2021/01/14 11:09:49;;;;;;;1.37;1.30;;;3.90;99.90;;;;;;4985763;28;20260;-89
2021/01/14 11:12:15;;;;;;;0.87;0.87;;;4.00;99.90;;;;;;4970756;28;20222;-91
2021/01/14 11:14:41;;;;;;;1.27;1.17;;;3.90;99.90;;;;;;4984687;28;20179;-89
2021/01/14 11:17:06;;;;;;;5.60;0.90;;;3.80;99.90;;;;;;4969258;28;20684;-91
2021/01/14 11:19:32;;;;;;;1.63;1.27;;;3.70;99.90;;;;;;4984260;28;20223;-91
2021/01/14 11:21:58;;;;;;;1.63;1.50;;;3.60;99.90;;;;;;4967461;28;20692;-91
2021/01/14 11:24:23;;;;;;;1.40;1.00;;;3.70;99.90;;;;;;4984715;28;20311;-90
2021/01/14 11:26:51;;;;;;;1.87;1.43;;;3.80;99.90;;;;;;4966884;28;20195;-91
2021/01/14 11:29:16;;;;;;;1.70;1.43;;;4.00;99.90;;;;;;4985473;28;20188;-90
2021/01/14 11:31:42;;;;;;;0.30;0.30;;;3.90;99.90;;;;;;4984028;28;20262;-90
2021/01/14 11:34:08;;;;;;;1.97;1.57;;;3.80;99.90;;;;;;4967122;28;20718;-92
2021/01/14 11:36:33;;;;;;;1.00;1.00;;;3.80;99.90;;;;;;4967663;28;20241;-90
2021/01/14 11:38:59;;;;;;;0.80;0.80;;;3.70;99.90;;;;;;4985464;28;20221;-92
2021/01/14 11:41:25;;;;;;;0.90;0.90;;;3.70;99.90;;;;;;4989290;28;20219;-91
2021/01/14 11:43:51;;;;;;;0.40;0.40;;;3.60;99.90;;;;;;4987932;28;20295;-91
2021/01/14 11:46:27;;;;;;;1.53;0.97;;;3.70;99.90;;;;;;5009347;28;20215;-93
2021/01/14 11:48:53;;;;;;;0.87;0.87;;;3.60;99.90;;;;;;5005286;28;20218;-92
2021/01/14 11:51:20;;;;;;;2.73;1.47;;;3.60;99.90;;;;;;5009762;28;20322;-92
2021/01/14 11:53:45;;;;;;;0.40;0.40;;;3.60;99.90;;;;;;4959184;28;20202;-92
2021/01/14 11:56:14;;;;;;;1.27;1.17;;;3.50;99.90;;;;;;4979271;28;20299;-91
2021/01/14 11:58:40;;;;;;;1.67;1.00;;;3.50;99.90;;;;;;5006708;28;20297;-91
2021/01/14 12:01:06;;;;;;;1.33;0.90;;;3.40;99.90;;;;;;4972481;28;20997;-92
2021/01/14 12:03:33;;;;;;;1.20;1.20;;;3.30;99.90;;;;;;4987199;28;20674;-91
2021/01/14 12:05:58;;;;;;;2.17;1.20;;;3.30;99.90;;;;;;4972795;28;20572;-94
2021/01/14 12:08:24;;;;;;;0.60;0.60;;;3.20;99.90;;;;;;4972612;28;20199;-94
2021/01/14 12:10:50;;;;;;;2.70;1.00;;;3.10;99.90;;;;;;4987839;28;20315;-93
2021/01/14 12:13:16;;;;;;;2.50;1.80;;;3.00;99.90;;;;;;5004191;28;21211;-92
2021/01/14 12:15:41;;;;;;;5.13;1.33;;;3.00;99.90;;;;;;5004618;28;20235;-91
2021/01/14 12:18:07;;;;;;;2.20;2.10;;;2.90;99.90;;;;;;4967276;28;20278;-91
2021/01/14 12:20:33;;;;;;;0.73;0.73;;;2.90;99.90;;;;;;4989371;28;20188;-90
2021/01/14 12:22:58;;;;;;;2.57;2.30;;;2.90;99.90;;;;;;4987894;28;20231;-92
2021/01/14 12:25:24;;;;;;;11.70;1.03;;;2.90;99.90;;;;;;5007387;28;20771;-93
2021/01/14 12:27:50;;;;;;;1.20;1.20;;;2.90;99.90;;;;;;4992154;28;20576;-92
2021/01/14 12:30:16;;;;;;;0.90;0.90;;;3.10;99.90;;;;;;4975956;28;20672;-94
2021/01/14 12:32:42;;;;;;;1.50;1.40;;;3.20;99.90;;;;;;4976878;28;20187;-93
2021/01/14 12:35:09;;;;;;;0.73;0.73;;;3.30;99.90;;;;;;4979702;28;20646;-92
2021/01/14 12:37:36;;;;;;;0.40;0.40;;;3.40;99.90;;;;;;4980174;28;20783;-91
2021/01/14 12:40:04;;;;;;;1.97;1.87;;;3.40;99.90;;;;;;5010429;28;20325;-92
2021/01/14 12:42:30;;;;;;;3.53;0.80;;;3.30;99.90;;;;;;5018187;28;20229;-92
2021/01/14 12:44:56;;;;;;;1.53;0.73;;;3.30;99.90;;;;;;4994478;28;20175;-91
2021/01/14 12:47:22;;;;;;;1.73;1.03;;;3.30;99.90;;;;;;4982272;28;20192;-92
2021/01/14 12:49:48;;;;;;;1.43;1.23;;;3.30;99.90;;;;;;4978517;28;20228;-92
2021/01/14 12:52:14;;;;;;;0.80;0.80;;;3.20;99.90;;;;;;4987420;28;20581;-93
2021/01/14 12:54:39;;;;;;;0.43;0.43;;;3.20;99.90;;;;;;5004345;28;20223;-93
2021/01/14 12:57:05;;;;;;;0.80;0.80;;;3.20;99.90;;;;;;4970695;28;21234;-93
2021/01/14 12:59:31;;;;;;;0.80;0.80;;;3.30;99.90;;;;;;4973958;28;20202;-94
2021/01/14 13:01:56;;;;;;;7.00;1.47;;;3.30;99.90;;;;;;4993320;28;20656;-93
2021/01/14 13:04:22;;;;;;;2.00;1.07;;;3.40;99.90;;;;;;4975351;28;20614;-92
2021/01/14 13:06:48;;;;;;;2.50;1.53;;;3.40;99.90;;;;;;4993881;28;20219;-92
2021/01/14 13:09:14;;;;;;;1.33;1.13;;;3.50;99.90;;;;;;4968658;28;20701;-92
2021/01/14 13:11:41;;;;;;;4.07;2.10;;;3.40;99.90;;;;;;4990672;28;20180;-91
2021/01/14 13:14:08;;;;;;;1.17;1.07;;;3.40;99.90;;;;;;4994628;28;20187;-93
2021/01/14 13:16:44;;;;;;;1.33;1.27;;;3.50;99.90;;;;;;4956315;28;20232;-93
2021/01/14 13:19:11;;;;;;;1.23;1.13;;;3.40;99.90;;;;;;4971806;28;20220;-93
2021/01/14 13:21:39;;;;;;;4.63;1.50;;;3.40;99.90;;;;;;4993497;28;20247;-92
2021/01/14 13:24:06;;;;;;;1.40;0.90;;;3.40;99.90;;;;;;4969438;28;20705;-91
2021/01/14 13:26:32;;;;;;;1.43;1.33;;;3.30;99.90;;;;;;4959931;28;20192;-91
2021/01/14 13:29:00;;;;;;;1.00;1.00;;;3.30;99.90;;;;;;4956792;28;20227;-93
2021/01/14 13:31:26;;;;;;;1.13;1.13;;;3.30;99.90;;;;;;4986529;28;20216;-93
2021/01/14 13:33:53;;;;;;;4.43;1.13;;;3.20;99.90;;;;;;4968006;28;20692;-91
2021/01/14 13:36:22;;;;;;;3.03;1.63;;;3.20;99.90;;;;;;4981584;28;20243;-91